Time;durP1;ratioP1;P1;durP2;ratioP2;P2;SDS_P1;SDS_P2;PMS_P1;PMS_P2;Temp;Humidity;BMP_temperature;BMP_pressure;BME280_temperature;BME280_humidity;BME280_pressure;Samples;Min_cycle;Max_cycle;Signal;HPM_P1;HPM_P2
2021/04/07 00:02:14;;;;;;;7.43;2.72;;;0.80;77.70;;;;;;5049109;28;20021;-65
2021/04/07 00:04:40;;;;;;;6.13;3.10;;;0.80;77.90;;;;;;5040298;28;20025;-65
2021/04/07 00:07:06;;;;;;;6.20;3.00;;;0.80;77.90;;;;;;5048961;28;20115;-64
2021/04/07 00:09:31;;;;;;;4.40;3.25;;;0.80;78.00;;;;;;5038563;28;20419;-65
2021/04/07 00:11:57;;;;;;;6.63;3.00;;;0.70;77.90;;;;;;5043446;28;20389;-66
2021/04/07 00:14:23;;;;;;;3.78;3.28;;;0.70;78.00;;;;;;5040771;28;20509;-64
2021/04/07 00:16:50;;;;;;;4.30;3.42;;;0.80;78.10;;;;;;5030885;28;20029;-64
2021/04/07 00:19:16;;;;;;;4.68;3.67;;;0.70;78.10;;;;;;5043157;28;20029;-65
2021/04/07 00:21:41;;;;;;;8.77;3.80;;;0.70;78.30;;;;;;5048812;28;20171;-65
2021/04/07 00:24:07;;;;;;;4.85;3.38;;;0.70;78.10;;;;;;5048324;28;20132;-64
2021/04/07 00:26:35;;;;;;;6.10;3.83;;;0.80;78.20;;;;;;5049060;28;20092;-64
2021/04/07 00:29:01;;;;;;;4.72;4.10;;;0.70;78.40;;;;;;5046510;28;20025;-65
2021/04/07 00:31:26;;;;;;;6.60;4.35;;;0.70;78.40;;;;;;5047552;28;20477;-65
2021/04/07 00:33:52;;;;;;;7.22;5.25;;;0.70;78.40;;;;;;5045173;28;20025;-65
2021/04/07 00:36:18;;;;;;;5.65;4.88;;;0.70;78.80;;;;;;5049178;28;20034;-64
2021/04/07 00:38:44;;;;;;;6.35;5.13;;;0.70;78.70;;;;;;5049175;28;20108;-64
2021/04/07 00:41:10;;;;;;;6.45;4.55;;;0.70;79.30;;;;;;5049039;28;20112;-65
2021/04/07 00:43:35;;;;;;;4.95;4.07;;;0.70;78.80;;;;;;5048835;28;20112;-65
2021/04/07 00:46:01;;;;;;;7.15;4.75;;;0.70;79.00;;;;;;5048309;28;20028;-64
2021/04/07 00:48:27;;;;;;;7.60;4.90;;;0.70;78.90;;;;;;5048581;28;20448;-64
2021/04/07 00:50:53;;;;;;;7.40;4.82;;;0.70;78.80;;;;;;5048961;28;20143;-64
2021/04/07 00:53:19;;;;;;;4.45;4.03;;;0.70;78.80;;;;;;5048103;28;20116;-64
2021/04/07 00:55:45;;;;;;;5.43;4.20;;;0.70;79.00;;;;;;5048196;28;20136;-65
2021/04/07 00:58:12;;;;;;;8.88;4.50;;;0.70;78.90;;;;;;5048787;28;20020;-65
2021/04/07 01:00:42;;;;;;;7.05;4.18;;;0.70;79.40;;;;;;5048211;28;20064;-65
2021/04/07 01:03:12;;;;;;;9.73;3.92;;;0.70;79.20;;;;;;5044287;28;20033;-64
2021/04/07 01:05:38;;;;;;;3.97;3.28;;;0.70;79.00;;;;;;5041427;28;20029;-64
2021/04/07 01:08:04;;;;;;;4.88;3.60;;;0.70;79.20;;;;;;5052166;28;20095;-65
2021/04/07 01:10:30;;;;;;;5.20;4.70;;;0.70;79.20;;;;;;5043640;28;20030;-65
2021/04/07 01:12:56;;;;;;;4.60;4.13;;;0.70;79.20;;;;;;5047018;28;20106;-65
2021/04/07 01:15:22;;;;;;;8.40;4.40;;;0.70;79.20;;;;;;5050941;28;20116;-65
2021/04/07 01:17:48;;;;;;;6.90;3.72;;;0.70;79.20;;;;;;5051790;28;20029;-65
2021/04/07 01:20:16;;;;;;;5.90;4.20;;;0.70;79.30;;;;;;5051841;28;20495;-66
2021/04/07 01:22:46;;;;;;;7.82;3.80;;;0.70;79.40;;;;;;5051853;28;20017;-65
2021/04/07 01:25:12;;;;;;;5.43;3.63;;;0.70;79.20;;;;;;5050993;28;20384;-65
2021/04/07 01:27:39;;;;;;;6.82;4.07;;;0.70;79.10;;;;;;5047076;28;20116;-65
2021/04/07 01:30:10;;;;;;;4.25;3.47;;;0.70;79.10;;;;;;5043195;28;20025;-65
2021/04/07 01:32:36;;;;;;;5.55;3.97;;;0.80;79.00;;;;;;5049208;28;20040;-65
2021/04/07 01:35:02;;;;;;;4.35;3.92;;;0.80;78.80;;;;;;5040240;28;20527;-65
2021/04/07 01:37:28;;;;;;;4.22;3.80;;;0.80;78.60;;;;;;5046697;28;20033;-65
2021/04/07 01:39:54;;;;;;;7.53;4.35;;;0.80;78.50;;;;;;5042308;28;20470;-66
2021/04/07 01:42:20;;;;;;;6.05;4.30;;;0.70;78.20;;;;;;5051672;28;20108;-65
2021/04/07 01:44:46;;;;;;;5.45;4.10;;;0.70;78.20;;;;;;5050505;28;20021;-65
2021/04/07 01:47:12;;;;;;;5.57;3.80;;;0.70;78.30;;;;;;5051558;28;20485;-65
2021/04/07 01:49:38;;;;;;;8.80;3.97;;;0.70;78.30;;;;;;5050793;28;20415;-66
2021/04/07 01:52:05;;;;;;;6.32;4.40;;;0.70;78.10;;;;;;5051432;28;20055;-64
2021/04/07 01:54:33;;;;;;;6.30;3.45;;;0.60;78.10;;;;;;5050591;28;20032;-65
2021/04/07 01:56:59;;;;;;;5.03;3.30;;;0.70;78.00;;;;;;5050515;28;20056;-64
2021/04/07 01:59:30;;;;;;;3.75;3.17;;;0.70;78.00;;;;;;5051444;28;20055;-65
2021/04/07 02:01:57;;;;;;;8.18;3.65;;;0.70;78.00;;;;;;5051130;28;20031;-64
2021/04/07 02:04:23;;;;;;;6.40;3.20;;;0.70;78.00;;;;;;5034395;28;20462;-65
2021/04/07 02:06:49;;;;;;;6.10;3.50;;;0.70;78.00;;;;;;5049544;28;20132;-66
2021/04/07 02:09:16;;;;;;;4.07;3.58;;;0.70;78.10;;;;;;5049724;28;20120;-64
2021/04/07 02:11:46;;;;;;;5.60;3.85;;;0.70;78.20;;;;;;5042491;28;20040;-65
2021/04/07 02:14:13;;;;;;;5.53;2.83;;;0.70;78.10;;;;;;5049571;28;20052;-65
2021/04/07 02:16:39;;;;;;;5.28;3.40;;;0.70;78.10;;;;;;5050856;28;20111;-65
2021/04/07 02:19:09;;;;;;;5.20;2.95;;;0.70;78.20;;;;;;5050360;28;20036;-65
2021/04/07 02:21:36;;;;;;;4.32;2.92;;;0.70;78.20;;;;;;5050742;28;20398;-64
2021/04/07 02:24:03;;;;;;;4.45;3.13;;;0.60;78.10;;;;;;5049961;28;20063;-65
2021/04/07 02:26:30;;;;;;;6.72;4.13;;;0.70;78.10;;;;;;5043298;28;20025;-64
2021/04/07 02:28:55;;;;;;;6.15;3.63;;;0.70;78.20;;;;;;5037592;28;20116;-65
2021/04/07 02:31:21;;;;;;;5.07;3.00;;;0.70;78.10;;;;;;5041262;28;20120;-64
2021/04/07 02:33:47;;;;;;;5.25;3.03;;;0.70;78.10;;;;;;5042255;28;20603;-64
2021/04/07 02:36:12;;;;;;;8.38;3.13;;;0.70;78.10;;;;;;5049464;28;20036;-65
2021/04/07 02:41:06;;;;;;;6.03;3.00;;;0.70;78.10;;;;;;5036721;28;20045;-86
2021/04/07 02:43:31;;;;;;;4.47;3.17;;;0.70;78.10;;;;;;5042761;28;20065;-86
2021/04/07 02:45:58;;;;;;;6.95;4.43;;;0.60;78.00;;;;;;5059279;28;20040;-86
2021/04/07 02:48:25;;;;;;;4.32;3.10;;;0.70;78.20;;;;;;5043104;28;20486;-85
2021/04/07 02:50:50;;;;;;;4.13;2.97;;;0.60;78.10;;;;;;5077269;28;20119;-86
2021/04/07 02:53:16;;;;;;;4.32;3.70;;;0.60;78.30;;;;;;5076623;28;20514;-86
2021/04/07 02:55:41;;;;;;;5.40;3.55;;;0.70;78.50;;;;;;5046945;28;20030;-86
2021/04/07 02:58:07;;;;;;;9.98;3.63;;;0.70;78.30;;;;;;5070269;28;20074;-86
2021/04/07 03:00:32;;;;;;;4.95;3.75;;;0.70;78.50;;;;;;5066567;28;20021;-86
2021/04/07 03:02:58;;;;;;;5.60;3.35;;;0.70;78.80;;;;;;5037321;28;20495;-85
2021/04/07 03:05:24;;;;;;;6.57;3.15;;;0.70;78.50;;;;;;5070465;28;20080;-85
2021/04/07 03:07:49;;;;;;;4.22;3.03;;;0.60;78.30;;;;;;5075393;28;20474;-85
2021/04/07 03:10:15;;;;;;;4.43;2.60;;;0.60;78.30;;;;;;5058652;28;20095;-85
2021/04/07 03:12:40;;;;;;;3.67;3.05;;;0.60;78.00;;;;;;5046245;28;20039;-85
2021/04/07 03:15:09;;;;;;;4.05;3.00;;;0.60;78.00;;;;;;5073760;28;20498;-85
2021/04/07 03:17:35;;;;;;;5.40;2.75;;;0.70;78.00;;;;;;5050498;28;20040;-86
2021/04/07 03:20:02;;;;;;;5.13;2.67;;;0.60;77.80;;;;;;5069716;28;20032;-85
2021/04/07 03:22:27;;;;;;;5.22;2.55;;;0.60;77.70;;;;;;5063507;28;20017;-86
2021/04/07 03:24:53;;;;;;;8.63;2.58;;;0.60;77.70;;;;;;5057920;28;20402;-86
2021/04/07 03:27:18;;;;;;;5.68;2.35;;;0.70;77.90;;;;;;5058100;28;20028;-85
2021/04/07 03:29:44;;;;;;;3.28;2.00;;;0.70;77.60;;;;;;5057725;28;20040;-85
2021/04/07 03:32:09;;;;;;;6.25;2.08;;;0.70;77.40;;;;;;5064938;28;20021;-85
2021/04/07 03:34:35;;;;;;;3.83;2.33;;;0.70;77.40;;;;;;5078213;28;20499;-85
2021/04/07 03:37:01;;;;;;;3.22;2.10;;;0.70;77.30;;;;;;5067215;28;20025;-86
2021/04/07 03:39:26;;;;;;;4.93;2.00;;;0.70;77.20;;;;;;5052736;28;20029;-84
2021/04/07 03:41:52;;;;;;;4.18;2.33;;;0.70;77.50;;;;;;5055059;28;20025;-86
2021/04/07 03:44:18;;;;;;;7.20;2.55;;;0.70;77.00;;;;;;5074613;28;20559;-86
2021/04/07 03:46:43;;;;;;;3.90;2.03;;;0.70;77.00;;;;;;5066640;28;20123;-86
2021/04/07 03:49:09;;;;;;;3.42;2.45;;;0.80;77.00;;;;;;5058118;28;20052;-85
2021/04/07 03:51:35;;;;;;;2.53;2.15;;;0.70;76.80;;;;;;5066026;28;20078;-86
2021/04/07 03:54:00;;;;;;;4.35;2.05;;;0.70;76.90;;;;;;5068768;28;20025;-85
2021/04/07 03:56:27;;;;;;;4.75;2.33;;;0.70;76.90;;;;;;5060486;28;20498;-86
2021/04/07 03:58:53;;;;;;;3.13;2.58;;;0.70;76.60;;;;;;5067769;28;20027;-85
2021/04/07 04:01:18;;;;;;;2.50;2.00;;;0.70;76.60;;;;;;5059212;28;20044;-86
2021/04/07 04:03:44;;;;;;;5.88;2.20;;;0.70;76.50;;;;;;5059352;28;20067;-85
2021/04/07 04:06:09;;;;;;;4.93;2.42;;;0.70;76.50;;;;;;5072650;28;20168;-85
2021/04/07 04:08:35;;;;;;;4.10;2.08;;;0.70;76.40;;;;;;5058131;28;20029;-86
2021/04/07 04:11:01;;;;;;;3.00;1.98;;;0.70;76.30;;;;;;5052926;28;20382;-85
2021/04/07 04:13:26;;;;;;;2.60;1.80;;;0.70;76.40;;;;;;5056859;28;20448;-86
2021/04/07 04:15:52;;;;;;;3.45;2.42;;;0.70;76.40;;;;;;5057443;28;20025;-86
2021/04/07 04:18:18;;;;;;;6.07;2.67;;;0.70;76.40;;;;;;5057206;28;20138;-85
2021/04/07 04:20:44;;;;;;;4.20;2.10;;;0.60;76.40;;;;;;5069890;28;20048;-86
2021/04/07 04:23:11;;;;;;;5.47;2.90;;;0.60;76.90;;;;;;5072717;28;20483;-86
2021/04/07 04:26:25;;;;;;;6.20;2.78;;;0.50;77.00;;;;;;5057280;28;20033;-86
2021/04/07 04:28:52;;;;;;;7.97;3.33;;;0.50;77.30;;;;;;5074281;28;20028;-85
2021/04/07 04:31:21;;;;;;;4.93;3.40;;;0.50;77.40;;;;;;5057290;28;20128;-87
2021/04/07 04:33:47;;;;;;;3.20;2.90;;;0.50;77.50;;;;;;5068905;28;20041;-86
2021/04/07 04:36:23;;;;;;;8.55;3.40;;;0.50;77.30;;;;;;5060931;28;20040;-86
2021/04/07 04:38:49;;;;;;;5.75;3.40;;;0.50;77.30;;;;;;5074826;28;20506;-86
2021/04/07 04:41:19;;;;;;;6.03;3.40;;;0.50;77.30;;;;;;5061430;28;20028;-86
2021/04/07 04:43:48;;;;;;;8.75;4.00;;;0.50;77.30;;;;;;5065479;28;20040;-86
2021/04/07 04:46:14;;;;;;;5.25;3.33;;;0.50;77.40;;;;;;5059576;28;20029;-87
2021/04/07 04:48:39;;;;;;;7.88;4.13;;;0.50;77.30;;;;;;5055697;28;20052;-85
2021/04/07 04:51:05;;;;;;;4.50;3.60;;;0.50;77.40;;;;;;5061171;28;20044;-87
2021/04/07 04:53:31;;;;;;;6.22;3.78;;;0.60;77.30;;;;;;5057204;28;20056;-86
2021/04/07 04:55:57;;;;;;;4.35;3.63;;;0.60;77.20;;;;;;5077784;28;20040;-87
2021/04/07 04:58:22;;;;;;;5.25;3.75;;;0.50;77.20;;;;;;5060615;28;20049;-86
2021/04/07 05:00:48;;;;;;;7.50;3.65;;;0.60;77.20;;;;;;5060587;28;20017;-86
2021/04/07 05:03:13;;;;;;;6.03;3.63;;;0.60;77.20;;;;;;5058121;28;20081;-87
2021/04/07 05:05:39;;;;;;;7.47;4.32;;;0.60;77.00;;;;;;5062536;28;20016;-87
2021/04/07 05:08:05;;;;;;;9.15;4.05;;;0.60;77.00;;;;;;5080936;28;20020;-86
2021/04/07 05:10:30;;;;;;;5.70;3.92;;;0.70;77.30;;;;;;5067264;28;20032;-87
2021/04/07 05:12:56;;;;;;;6.65;3.80;;;0.60;77.20;;;;;;5054412;28;20098;-87
2021/04/07 05:15:21;;;;;;;5.30;3.90;;;0.60;77.30;;;;;;5052980;28;20791;-86
2021/04/07 05:17:49;;;;;;;8.10;3.72;;;0.60;77.40;;;;;;5074156;28;20475;-86
2021/04/07 05:20:15;;;;;;;9.38;4.68;;;0.50;77.40;;;;;;5057666;28;20300;-85
2021/04/07 05:22:40;;;;;;;7.35;4.05;;;0.60;77.70;;;;;;5047845;28;20079;-86
2021/04/07 05:25:06;;;;;;;7.97;3.80;;;0.60;77.60;;;;;;5039697;28;20025;-86
2021/04/07 05:27:32;;;;;;;6.10;3.63;;;0.60;77.50;;;;;;5048489;28;20029;-86
2021/04/07 05:29:57;;;;;;;7.75;3.85;;;0.60;77.50;;;;;;5059027;28;20029;-86
2021/04/07 05:32:23;;;;;;;5.43;3.50;;;0.60;77.30;;;;;;5059754;28;20035;-87
2021/04/07 05:34:49;;;;;;;5.97;3.35;;;0.60;77.30;;;;;;5060058;28;20035;-87
2021/04/07 05:37:15;;;;;;;6.50;3.50;;;0.70;77.30;;;;;;5047950;28;20156;-86
2021/04/07 05:39:40;;;;;;;6.78;3.25;;;0.70;77.10;;;;;;5041487;28;20041;-86
2021/04/07 05:42:06;;;;;;;4.03;3.28;;;0.70;77.00;;;;;;5040734;28;20025;-86
2021/04/07 05:44:32;;;;;;;8.98;3.40;;;0.70;77.00;;;;;;5059987;28;20181;-87
2021/04/07 05:46:57;;;;;;;5.25;3.35;;;0.80;76.90;;;;;;5051884;28;20401;-87
2021/04/07 05:49:26;;;;;;;5.80;2.88;;;0.80;76.80;;;;;;5076860;28;20025;-86
2021/04/07 05:51:52;;;;;;;4.68;3.05;;;0.80;76.80;;;;;;5059151;28;20036;-86
2021/04/07 05:54:18;;;;;;;5.07;3.22;;;0.90;76.70;;;;;;5057294;28;20128;-87
2021/04/07 05:56:44;;;;;;;6.85;3.47;;;0.90;76.50;;;;;;5072600;28;20052;-86
2021/04/07 05:59:09;;;;;;;4.65;3.45;;;0.90;76.30;;;;;;5055614;28;20128;-87
2021/04/07 06:01:35;;;;;;;8.48;3.67;;;0.90;76.40;;;;;;5060223;28;20398;-87
2021/04/07 06:04:00;;;;;;;13.50;6.00;;;0.90;76.20;;;;;;5050332;28;20486;-86
2021/04/07 06:06:26;;;;;;;5.47;3.22;;;0.90;76.20;;;;;;5088270;28;20025;-86
2021/04/07 06:08:52;;;;;;;8.48;3.80;;;1.00;76.20;;;;;;5062279;28;20064;-87
2021/04/07 06:11:19;;;;;;;7.57;3.67;;;1.00;76.00;;;;;;5063739;28;20505;-85
2021/04/07 06:13:45;;;;;;;6.72;3.28;;;1.00;75.80;;;;;;5080114;28;20413;-85
2021/04/07 06:16:13;;;;;;;6.30;3.60;;;1.00;75.90;;;;;;5054088;28;20029;-86
2021/04/07 06:18:38;;;;;;;9.32;2.97;;;1.00;76.00;;;;;;5059901;28;20032;-86
2021/04/07 06:21:04;;;;;;;5.75;2.80;;;1.10;76.00;;;;;;5096125;28;20024;-86
2021/04/07 06:23:30;;;;;;;6.57;2.95;;;1.10;75.90;;;;;;5064249;28;20056;-86
2021/04/07 06:25:55;;;;;;;7.18;2.90;;;1.10;75.80;;;;;;5058467;28;20025;-86
2021/04/07 06:28:21;;;;;;;8.30;3.30;;;1.10;75.80;;;;;;5058140;28;20121;-86
2021/04/07 06:30:47;;;;;;;4.82;2.88;;;1.10;75.90;;;;;;5054334;28;20041;-85
2021/04/07 06:33:22;;;;;;;8.27;3.40;;;1.20;75.80;;;;;;5054914;28;20119;-85
2021/04/07 06:35:51;;;;;;;8.98;3.20;;;1.30;75.70;;;;;;5038623;28;20026;-86
2021/04/07 06:38:18;;;;;;;5.53;3.00;;;1.30;75.60;;;;;;5038786;28;20018;-85
2021/04/07 06:40:44;;;;;;;6.03;2.90;;;1.30;75.30;;;;;;5076574;28;20119;-86
2021/04/07 06:43:10;;;;;;;5.28;3.28;;;1.40;75.30;;;;;;5079094;28;20067;-86
2021/04/07 06:45:38;;;;;;;4.90;2.95;;;1.40;75.30;;;;;;5070600;28;20026;-86
2021/04/07 06:48:05;;;;;;;7.20;4.18;;;1.40;75.50;;;;;;5052035;28;20021;-85
2021/04/07 06:50:31;;;;;;;4.68;3.00;;;1.40;75.90;;;;;;5074868;28;20078;-86
2021/04/07 06:52:59;;;;;;;8.63;4.28;;;1.40;76.00;;;;;;5076795;28;20033;-86
2021/04/07 06:55:26;;;;;;;10.45;4.05;;;1.30;76.00;;;;;;5078334;28;20036;-86
2021/04/07 06:57:53;;;;;;;8.77;3.97;;;1.30;76.60;;;;;;5058641;28;20028;-86
2021/04/07 07:00:19;;;;;;;7.15;3.97;;;1.20;76.70;;;;;;5060111;28;20048;-85
2021/04/07 07:02:44;;;;;;;5.03;3.08;;;1.20;76.90;;;;;;5059854;28;20029;-86
2021/04/07 07:05:11;;;;;;;6.15;3.15;;;1.20;76.70;;;;;;5059744;28;20116;-86
2021/04/07 07:07:36;;;;;;;4.13;2.50;;;1.30;76.60;;;;;;5088111;28;20020;-86
2021/04/07 07:10:03;;;;;;;4.22;2.70;;;1.40;76.20;;;;;;5079138;28;20023;-86
2021/04/07 07:12:32;;;;;;;5.63;2.80;;;1.50;76.20;;;;;;5079299;28;20100;-86
2021/04/07 07:15:02;;;;;;;7.43;2.90;;;1.50;75.80;;;;;;5071367;28;20130;-86
2021/04/07 07:17:34;;;;;;;6.47;2.45;;;1.60;75.70;;;;;;5055253;28;20052;-86
2021/04/07 07:20:00;;;;;;;4.67;2.63;;;1.70;75.20;;;;;;5067732;28;20036;-86
2021/04/07 07:22:28;;;;;;;5.90;2.75;;;1.70;75.20;;;;;;5059366;28;20789;-86
2021/04/07 07:25:03;;;;;;;5.88;2.25;;;1.80;74.70;;;;;;5059786;28;20096;-86
2021/04/07 07:27:40;;;;;;;5.00;2.28;;;1.80;74.50;;;;;;5065231;28;20053;-85
2021/04/07 07:30:09;;;;;;;5.43;2.10;;;1.80;74.10;;;;;;5070575;28;20021;-86
2021/04/07 07:32:37;;;;;;;3.88;1.88;;;1.80;73.90;;;;;;5063407;28;20028;-85
2021/04/07 07:35:06;;;;;;;6.45;1.90;;;1.90;73.90;;;;;;5087283;28;20133;-85
2021/04/07 07:37:31;;;;;;;6.70;2.08;;;1.90;73.30;;;;;;5082968;28;20035;-85
2021/04/07 07:39:57;;;;;;;5.30;1.92;;;1.90;73.20;;;;;;5083666;28;20040;-86
2021/04/07 07:42:23;;;;;;;4.22;1.85;;;1.90;73.20;;;;;;5071936;28;20028;-86
2021/04/07 07:44:49;;;;;;;3.53;1.83;;;1.80;72.60;;;;;;5072783;28;20486;-86
2021/04/07 07:47:19;;;;;;;4.75;2.15;;;1.80;72.70;;;;;;5066248;28;20036;-86
2021/04/07 07:50:01;;;;;;;4.28;2.00;;;1.80;72.80;;;;;;5060474;28;20040;-85
2021/04/07 07:52:31;;;;;;;5.07;1.90;;;1.80;72.60;;;;;;5056715;28;20124;-86
2021/04/07 07:54:58;;;;;;;2.90;1.70;;;1.80;72.00;;;;;;5062191;28;20041;-86
2021/04/07 07:57:24;;;;;;;5.55;1.92;;;1.80;71.90;;;;;;5059775;28;20123;-85
2021/04/07 07:59:56;;;;;;;5.43;2.10;;;1.80;72.00;;;;;;5054915;28;20533;-86
2021/04/07 08:02:25;;;;;;;4.72;2.13;;;1.80;72.20;;;;;;5058313;28;20047;-86
2021/04/07 08:04:51;;;;;;;4.85;2.00;;;1.90;71.20;;;;;;5052557;28;20039;-85
2021/04/07 08:07:17;;;;;;;6.78;1.90;;;1.90;71.10;;;;;;5051057;28;20082;-85
2021/04/07 08:09:43;;;;;;;7.95;1.90;;;2.00;70.90;;;;;;5064167;28;20075;-85
2021/04/07 08:12:10;;;;;;;5.55;1.83;;;2.30;70.90;;;;;;5076994;28;20029;-86
2021/04/07 08:14:39;;;;;;;6.63;2.10;;;2.40;70.80;;;;;;5061282;28;20029;-86
2021/04/07 08:17:06;;;;;;;5.50;2.05;;;2.80;70.30;;;;;;5048874;28;20436;-87
2021/04/07 08:19:36;;;;;;;9.10;2.00;;;2.90;69.00;;;;;;5075638;28;20052;-86
2021/04/07 08:22:04;;;;;;;2.63;1.65;;;2.80;69.00;;;;;;5055631;28;20025;-86
2021/04/07 08:24:31;;;;;;;6.28;2.38;;;2.70;68.60;;;;;;5048327;28;20025;-83
2021/04/07 08:26:57;;;;;;;3.25;1.85;;;2.80;68.90;;;;;;5059939;28;20055;-84
2021/04/07 08:29:23;;;;;;;5.18;2.33;;;2.80;69.20;;;;;;5054545;28;20021;-85
2021/04/07 08:31:50;;;;;;;5.50;2.35;;;2.70;69.20;;;;;;5092485;28;20048;-86
2021/04/07 08:34:18;;;;;;;4.72;2.30;;;2.80;69.10;;;;;;5076721;28;20025;-85
2021/04/07 08:36:45;;;;;;;5.75;2.38;;;2.90;68.50;;;;;;5077250;28;20017;-86
2021/04/07 08:39:18;;;;;;;5.90;2.03;;;2.80;68.30;;;;;;5075842;28;20025;-86
2021/04/07 08:41:46;;;;;;;8.95;2.03;;;2.70;68.80;;;;;;5050868;28;20017;-86
2021/04/07 08:44:12;;;;;;;3.88;1.92;;;2.70;68.60;;;;;;5059975;28;20092;-86
2021/04/07 08:46:48;;;;;;;4.35;2.58;;;2.70;68.50;;;;;;5065114;28;20024;-86
2021/04/07 08:49:35;;;;;;;6.45;2.25;;;2.60;68.90;;;;;;5046320;28;20514;-86
2021/04/07 08:52:22;;;;;;;4.82;2.22;;;2.80;68.70;;;;;;5056484;28;20051;-86
2021/04/07 08:54:53;;;;;;;5.10;2.05;;;3.00;68.70;;;;;;5080787;23;20061;-87
2021/04/07 08:57:35;;;;;;;5.13;1.80;;;3.50;67.40;;;;;;5065347;28;20059;-87
2021/04/07 09:00:08;;;;;;;2.72;1.85;;;3.70;66.90;;;;;;5069465;28;20025;-88
2021/04/07 09:02:46;;;;;;;5.93;2.40;;;3.50;67.50;;;;;;5065657;28;20065;-88
2021/04/07 09:05:12;;;;;;;6.78;2.72;;;3.40;66.60;;;;;;5063211;28;20044;-88
2021/04/07 09:07:43;;;;;;;4.70;2.25;;;3.50;66.60;;;;;;5035367;28;20029;-88
2021/04/07 09:10:09;;;;;;;5.07;2.20;;;3.90;66.00;;;;;;5038835;28;20033;-88
2021/04/07 09:12:35;;;;;;;8.43;2.58;;;5.00;63.30;;;;;;5043397;28;20049;-87
2021/04/07 09:15:11;;;;;;;4.90;2.00;;;5.00;62.50;;;;;;5035307;28;20022;-88
2021/04/07 09:18:06;;;;;;;3.03;1.95;;;4.60;63.90;;;;;;5034439;28;20044;-88
2021/04/07 09:20:36;;;;;;;3.80;2.03;;;4.20;65.50;;;;;;5031814;28;20068;-87
2021/04/07 09:23:16;;;;;;;3.90;2.30;;;4.00;66.00;;;;;;5035975;28;20022;-88
2021/04/07 09:25:57;;;;;;;6.32;2.20;;;3.70;66.00;;;;;;5045812;28;20029;-87
2021/04/07 09:28:31;;;;;;;10.05;2.60;;;3.40;65.70;;;;;;5048738;28;20025;-87
2021/04/07 09:31:05;;;;;;;5.38;2.35;;;3.20;66.10;;;;;;5044319;28;20029;-88
2021/04/07 09:33:31;;;;;;;5.80;2.20;;;3.00;66.30;;;;;;5041857;28;20029;-87
2021/04/07 09:36:00;;;;;;;4.47;2.03;;;2.80;66.60;;;;;;5034595;28;20030;-88
2021/04/07 09:38:31;;;;;;;6.45;2.95;;;2.80;67.00;;;;;;5045946;28;20025;-88
2021/04/07 09:41:10;;;;;;;7.60;2.90;;;2.70;66.80;;;;;;5050877;28;20523;-87
2021/04/07 09:43:37;;;;;;;8.20;3.22;;;2.70;67.30;;;;;;5049451;28;20079;-87
2021/04/07 09:46:04;;;;;;;6.45;2.92;;;2.50;67.90;;;;;;5053237;28;20036;-87
2021/04/07 09:48:35;;;;;;;4.60;3.38;;;2.50;68.50;;;;;;5050820;28;20124;-86
2021/04/07 09:51:24;;;;;;;6.07;3.50;;;2.40;69.70;;;;;;5048657;28;20036;-87
2021/04/07 09:53:51;;;;;;;11.63;3.58;;;2.30;70.80;;;;;;5036497;28;20395;-86
2021/04/07 09:56:16;;;;;;;11.13;3.88;;;2.30;70.90;;;;;;5040038;28;20064;-87
2021/04/07 09:58:42;;;;;;;5.32;3.10;;;2.30;71.30;;;;;;5033036;28;20030;-87
2021/04/07 10:01:08;;;;;;;9.07;3.50;;;2.40;71.30;;;;;;5045231;28;20084;-88
2021/04/07 10:03:33;;;;;;;5.38;3.70;;;2.40;72.10;;;;;;5049759;28;20047;-87
2021/04/07 10:05:59;;;;;;;7.30;4.05;;;2.50;72.70;;;;;;5049832;28;20050;-88
2021/04/07 10:08:26;;;;;;;10.20;4.07;;;2.40;72.60;;;;;;5052151;28;20780;-87
2021/04/07 10:10:52;;;;;;;9.35;4.15;;;2.40;73.20;;;;;;5051586;28;20163;-88
2021/04/07 10:13:31;;;;;;;5.80;4.20;;;2.40;73.60;;;;;;5042896;28;20044;-87
2021/04/07 10:15:56;;;;;;;8.13;4.63;;;2.50;73.70;;;;;;5032611;28;20166;-88
2021/04/07 10:18:22;;;;;;;6.30;3.58;;;2.70;73.40;;;;;;5032822;28;20164;-87
2021/04/07 10:20:48;;;;;;;8.25;4.35;;;2.90;73.00;;;;;;5032612;28;20025;-87
2021/04/07 10:23:17;;;;;;;6.35;3.83;;;3.20;72.50;;;;;;5041843;28;20032;-87
2021/04/07 10:25:43;;;;;;;6.15;4.20;;;3.30;72.10;;;;;;5041934;28;20025;-87
2021/04/07 10:28:18;;;;;;;7.95;3.95;;;3.20;71.80;;;;;;5044273;28;20067;-87
2021/04/07 10:31:03;;;;;;;10.32;5.13;;;3.10;71.70;;;;;;5052113;28;20029;-87
2021/04/07 10:33:28;;;;;;;10.68;4.40;;;3.00;71.70;;;;;;5051263;28;20032;-87
2021/04/07 10:35:59;;;;;;;9.93;4.20;;;3.00;71.90;;;;;;5032416;28;20026;-87
2021/04/07 10:38:29;;;;;;;5.68;3.97;;;2.90;71.50;;;;;;5042247;28;20025;-87
2021/04/07 10:41:02;;;;;;;9.75;4.20;;;2.90;71.80;;;;;;5031916;28;20029;-87
2021/04/07 10:43:39;;;;;;;11.57;4.13;;;2.80;71.80;;;;;;5048886;28;20039;-87
2021/04/07 10:46:09;;;;;;;6.03;4.30;;;2.80;72.00;;;;;;5052396;28;20075;-87
2021/04/07 10:48:36;;;;;;;5.95;3.67;;;2.80;71.90;;;;;;5035832;28;20498;-86
2021/04/07 10:51:02;;;;;;;7.60;4.28;;;2.70;71.70;;;;;;5034086;28;20025;-87
2021/04/07 10:53:38;;;;;;;10.25;3.67;;;2.70;71.90;;;;;;5044429;28;20079;-87
2021/04/07 10:56:22;;;;;;;4.20;3.60;;;2.70;71.70;;;;;;5038660;28;20076;-87
2021/04/07 10:59:03;;;;;;;7.82;3.67;;;2.80;71.70;;;;;;5052083;28;20044;-87
2021/04/07 11:01:34;;;;;;;6.47;3.83;;;2.80;71.50;;;;;;5036403;28;20033;-87
2021/04/07 11:04:15;;;;;;;5.63;3.70;;;2.80;71.60;;;;;;5047035;28;20483;-88
2021/04/07 11:06:42;;;;;;;9.43;4.72;;;2.80;71.70;;;;;;5042405;28;20115;-87
2021/04/07 11:09:13;;;;;;;5.95;3.88;;;2.80;71.80;;;;;;5052487;28;20028;-87
2021/04/07 11:11:43;;;;;;;6.78;3.38;;;2.90;71.70;;;;;;5054066;28;20029;-87
2021/04/07 11:14:11;;;;;;;5.25;3.22;;;3.10;70.90;;;;;;5059022;28;20456;-87
2021/04/07 11:16:37;;;;;;;5.18;3.17;;;3.20;70.70;;;;;;5058640;28;20112;-86
2021/04/07 11:19:15;;;;;;;8.88;3.65;;;3.30;70.10;;;;;;5056782;28;20021;-88
2021/04/07 11:21:44;;;;;;;5.90;3.60;;;3.30;69.90;;;;;;5053087;28;20430;-87
2021/04/07 11:24:09;;;;;;;6.22;2.95;;;3.30;69.60;;;;;;5060941;28;20021;-87
2021/04/07 11:26:35;;;;;;;6.28;3.10;;;3.20;69.10;;;;;;5066677;28;20057;-87
2021/04/07 11:29:01;;;;;;;6.95;3.35;;;3.20;69.10;;;;;;5065972;28;20101;-87
2021/04/07 11:31:42;;;;;;;9.68;3.28;;;3.20;69.20;;;;;;5064059;28;20044;-86
2021/04/07 11:34:11;;;;;;;8.73;3.42;;;3.10;69.30;;;;;;5054844;28;20596;-87
2021/04/07 11:37:02;;;;;;;6.43;3.50;;;3.20;69.10;;;;;;5048565;28;20029;-87
2021/04/07 11:44:26;;;;;;;5.20;3.05;;;3.10;69.20;;;;;;5056113;28;20021;-85
2021/04/07 11:46:52;;;;;;;5.88;3.10;;;3.10;69.10;;;;;;5042267;28;20033;-87
2021/04/07 11:49:18;;;;;;;8.57;2.70;;;3.10;69.00;;;;;;5051682;28;20021;-86
2021/04/07 11:51:44;;;;;;;6.55;3.00;;;3.10;68.90;;;;;;5066004;28;20029;-87
2021/04/07 11:54:12;;;;;;;9.43;2.80;;;3.00;68.50;;;;;;5064298;28;20032;-87
2021/04/07 11:56:42;;;;;;;9.00;2.78;;;3.00;68.20;;;;;;5046657;28;20029;-87
2021/04/07 11:59:07;;;;;;;5.03;2.63;;;3.00;68.20;;;;;;5058044;28;20025;-87
2021/04/07 12:01:33;;;;;;;10.68;3.40;;;3.00;67.90;;;;;;5054711;28;20364;-87
2021/04/07 12:03:59;;;;;;;5.05;2.65;;;3.00;67.90;;;;;;5064009;28;20025;-87
2021/04/07 12:06:25;;;;;;;6.13;2.60;;;3.10;67.70;;;;;;5070207;28;20025;-86
2021/04/07 12:08:51;;;;;;;4.35;2.58;;;3.10;67.80;;;;;;5066530;28;20027;-86
2021/04/07 12:11:16;;;;;;;8.82;2.60;;;3.20;68.10;;;;;;5065960;28;20089;-86
2021/04/07 12:13:42;;;;;;;5.22;2.47;;;3.20;68.30;;;;;;5050971;28;20399;-87
2021/04/07 12:16:07;;;;;;;7.93;2.30;;;3.30;67.70;;;;;;5044391;28;20029;-86
2021/04/07 12:18:34;;;;;;;3.67;2.20;;;3.30;67.70;;;;;;5051541;28;20087;-88
2021/04/07 12:20:59;;;;;;;5.60;2.63;;;3.30;67.00;;;;;;5063249;28;20059;-86
2021/04/07 12:23:25;;;;;;;5.97;2.17;;;3.20;66.60;;;;;;5056167;28;20550;-87
2021/04/07 12:25:50;;;;;;;5.47;2.40;;;3.20;67.20;;;;;;5055594;28;20053;-87
2021/04/07 12:28:52;;;;;;;5.68;2.45;;;3.20;67.60;;;;;;5051695;28;20035;-88
2021/04/07 12:31:20;;;;;;;8.32;2.50;;;3.30;67.60;;;;;;5048045;28;20025;-87
2021/04/07 12:33:51;;;;;;;7.35;2.63;;;3.30;67.20;;;;;;5050421;28;20037;-88
2021/04/07 12:36:23;;;;;;;7.57;2.50;;;3.40;67.30;;;;;;5031391;28;20036;-87
2021/04/07 12:38:49;;;;;;;5.65;2.47;;;3.50;67.50;;;;;;5041827;28;20329;-89
2021/04/07 12:41:19;;;;;;;8.98;2.65;;;3.50;67.30;;;;;;5054385;28;20021;-87
2021/04/07 12:43:45;;;;;;;6.20;2.60;;;3.60;67.00;;;;;;5045496;28;20092;-88
2021/04/07 12:46:10;;;;;;;5.78;2.30;;;3.70;66.50;;;;;;5045281;28;20048;-86
2021/04/07 12:48:36;;;;;;;6.53;1.67;;;3.80;65.10;;;;;;5045565;28;20036;-86
2021/04/07 12:51:02;;;;;;;5.50;2.17;;;3.90;64.90;;;;;;5060896;28;20040;-87
2021/04/07 12:53:27;;;;;;;6.05;2.05;;;3.90;65.30;;;;;;5042239;28;20037;-87
2021/04/07 12:55:53;;;;;;;3.80;1.73;;;4.00;65.50;;;;;;5044190;28;20025;-87
2021/04/07 12:58:34;;;;;;;9.55;2.28;;;4.00;65.70;;;;;;5064223;28;20025;-86
2021/04/07 13:01:00;;;;;;;3.72;1.73;;;3.90;64.30;;;;;;5066018;28;20140;-88
2021/04/07 13:03:25;;;;;;;3.75;1.85;;;3.90;64.70;;;;;;5048033;28;20044;-86
2021/04/07 13:05:51;;;;;;;3.85;1.67;;;3.90;65.00;;;;;;5047534;28;20025;-87
2021/04/07 13:08:16;;;;;;;8.98;2.33;;;3.80;64.70;;;;;;5053023;28;20123;-88
2021/04/07 13:10:42;;;;;;;4.65;2.15;;;3.80;65.30;;;;;;5064480;28;20031;-87